createdAt,value
2022-12-07T00:01:39.920Z,4.38
2022-12-07T00:04:08.187Z,4.36
2022-12-07T00:06:37.320Z,4.34
2022-12-07T00:09:05.151Z,4.42
2022-12-07T00:11:31.860Z,4.36
2022-12-07T00:14:01.234Z,4.30
2022-12-07T00:16:30.491Z,4.24
2022-12-07T00:18:57.815Z,4.20
2022-12-07T00:21:27.949Z,4.12
2022-12-07T00:23:56.328Z,4.12
2022-12-07T00:26:31.748Z,4.04
2022-12-07T00:29:03.517Z,4.00
2022-12-07T00:31:34.468Z,4.03
2022-12-07T00:34:01.462Z,3.97
2022-12-07T00:36:28.305Z,3.99
2022-12-07T00:38:56.211Z,3.96
2022-12-07T00:41:24.848Z,3.92
2022-12-07T00:43:52.165Z,3.93
2022-12-07T00:46:20.079Z,3.94
2022-12-07T00:48:48.067Z,3.94
2022-12-07T00:51:15.758Z,3.92
2022-12-07T00:53:42.650Z,3.85
2022-12-07T00:56:14.285Z,3.77
2022-12-07T00:58:41.100Z,3.80
2022-12-07T01:01:09.028Z,3.87
2022-12-07T01:03:36.203Z,3.86
2022-12-07T01:06:03.838Z,3.93
2022-12-07T01:08:30.719Z,3.89
2022-12-07T01:11:01.718Z,3.90
2022-12-07T01:13:29.407Z,3.93
2022-12-07T01:16:00.828Z,3.93
2022-12-07T01:18:29.247Z,3.97
2022-12-07T01:21:02.094Z,4.02
2022-12-07T01:23:29.241Z,3.95
2022-12-07T01:26:00.794Z,3.98
2022-12-07T01:28:28.060Z,3.96
2022-12-07T01:31:16.343Z,3.85
2022-12-07T01:33:51.251Z,3.93
2022-12-07T01:36:23.451Z,3.90
2022-12-07T01:38:53.423Z,3.91
2022-12-07T01:41:21.676Z,3.97
2022-12-07T01:44:25.719Z,3.85
2022-12-07T01:46:58.821Z,3.82
2022-12-07T01:49:40.070Z,3.79
2022-12-07T01:52:16.998Z,3.79
2022-12-07T01:54:45.256Z,3.78
2022-12-07T01:57:12.730Z,3.84
2022-12-07T01:59:39.600Z,3.87
2022-12-07T02:02:10.895Z,3.89
2022-12-07T02:04:37.630Z,3.91
2022-12-07T02:07:05.733Z,3.96
2022-12-07T02:09:32.501Z,3.95
2022-12-07T02:11:59.243Z,3.96
2022-12-07T02:14:25.924Z,3.94
2022-12-07T02:16:59.337Z,4.00
2022-12-07T02:20:06.287Z,3.97
2022-12-07T02:22:39.106Z,4.03
2022-12-07T02:25:53.658Z,3.90
2022-12-07T02:28:30.401Z,3.93
2022-12-07T02:31:00.853Z,3.99
2022-12-07T02:33:33.122Z,4.02
2022-12-07T02:36:17.822Z,4.04
2022-12-07T02:39:08.242Z,4.04
2022-12-07T02:41:39.152Z,4.11
2022-12-07T02:44:09.618Z,4.12
2022-12-07T02:46:39.537Z,4.17
2022-12-07T02:49:06.668Z,4.13
2022-12-07T02:51:34.376Z,4.00
2022-12-07T02:54:01.216Z,4.01
2022-12-07T02:56:45.857Z,3.96
2022-12-07T02:59:50.078Z,3.95
2022-12-07T03:02:41.714Z,3.94
2022-12-07T03:05:11.566Z,4.01
2022-12-07T03:07:57.051Z,4.03
2022-12-07T03:10:42.755Z,4.06
2022-12-07T03:13:38.381Z,4.02
2022-12-07T03:16:17.246Z,4.00
2022-12-07T03:18:59.515Z,4.01
2022-12-07T03:21:29.143Z,4.06
2022-12-07T03:23:58.541Z,4.07
2022-12-07T03:26:31.796Z,4.07
2022-12-07T03:28:59.289Z,3.93
2022-12-07T03:31:30.645Z,3.94
2022-12-07T03:34:00.084Z,4.00
2022-12-07T03:36:38.735Z,3.96
2022-12-07T03:39:18.178Z,4.01
2022-12-07T03:41:45.622Z,4.06
2022-12-07T03:44:13.619Z,4.07
2022-12-07T03:46:48.279Z,4.02
2022-12-07T03:49:32.228Z,3.97
2022-12-07T03:52:03.880Z,4.05
2022-12-07T03:55:04.698Z,3.98
2022-12-07T03:57:33.176Z,4.02
2022-12-07T04:00:01.566Z,4.02
2022-12-07T04:02:39.023Z,4.03
2022-12-07T04:05:06.332Z,4.04
2022-12-07T04:07:33.056Z,4.05
2022-12-07T04:10:00.479Z,4.04
2022-12-07T04:12:27.673Z,4.06
2022-12-07T04:14:54.435Z,4.06
2022-12-07T04:17:21.364Z,4.06
2022-12-07T04:19:48.155Z,4.09
2022-12-07T04:22:14.942Z,4.05
2022-12-07T04:24:41.717Z,4.06
2022-12-07T04:27:08.627Z,4.08
2022-12-07T04:29:35.405Z,4.10
2022-12-07T04:32:02.413Z,4.09
2022-12-07T04:34:29.149Z,4.11
2022-12-07T04:36:56.201Z,4.05
2022-12-07T04:39:26.320Z,4.03
2022-12-07T04:41:53.427Z,4.03
2022-12-07T04:44:21.365Z,4.06
2022-12-07T04:46:48.388Z,4.06
2022-12-07T04:49:33.801Z,4.10
2022-12-07T04:52:19.289Z,4.12
2022-12-07T04:54:46.104Z,4.09
2022-12-07T04:57:12.921Z,4.08
2022-12-07T04:59:45.139Z,3.99
2022-12-07T05:02:12.598Z,4.03
2022-12-07T05:04:39.400Z,4.03
2022-12-07T05:07:06.372Z,4.09
2022-12-07T05:09:33.413Z,4.16
2022-12-07T05:12:00.221Z,4.18
2022-12-07T05:14:26.935Z,4.19
2022-12-07T05:16:54.573Z,4.24
2022-12-07T05:19:21.522Z,4.30
2022-12-07T05:21:48.329Z,4.33
2022-12-07T05:24:16.508Z,4.32
2022-12-07T05:26:44.023Z,4.33
2022-12-07T05:29:15.754Z,4.22
2022-12-07T05:31:43.147Z,4.22
2022-12-07T05:34:10.231Z,4.23
2022-12-07T05:36:37.428Z,4.23
2022-12-07T05:39:04.570Z,4.19
2022-12-07T05:41:50.054Z,4.13
2022-12-07T05:44:16.752Z,4.14
2022-12-07T05:46:43.488Z,4.12
2022-12-07T05:49:10.265Z,4.09
2022-12-07T05:51:37.163Z,4.10
2022-12-07T05:54:03.938Z,4.13
2022-12-07T05:56:30.739Z,4.09
2022-12-07T05:59:23.604Z,4.10
2022-12-07T06:01:55.571Z,4.06
2022-12-07T06:04:22.990Z,4.10
2022-12-07T06:06:50.100Z,4.14
2022-12-07T06:09:17.049Z,4.14
2022-12-07T06:12:02.504Z,4.16
2022-12-07T06:14:29.215Z,4.10
2022-12-07T06:16:56.165Z,4.16
2022-12-07T06:19:22.999Z,4.18
2022-12-07T06:21:49.724Z,4.14
2022-12-07T06:24:17.398Z,4.18
2022-12-07T06:26:44.261Z,4.18
2022-12-07T06:29:11.606Z,4.20
2022-12-07T06:31:38.528Z,4.23
2022-12-07T06:34:07.919Z,4.22
2022-12-07T06:36:34.652Z,4.22
2022-12-07T06:39:01.525Z,4.28
2022-12-07T06:41:28.416Z,4.26
2022-12-07T06:43:56.431Z,4.31
2022-12-07T06:46:23.691Z,4.33
2022-12-07T06:48:50.750Z,4.27
2022-12-07T06:51:17.580Z,4.24
2022-12-07T06:53:44.285Z,4.22
2022-12-07T06:56:11.079Z,4.24
2022-12-07T06:58:37.855Z,4.23
2022-12-07T07:01:12.695Z,4.26
2022-12-07T07:03:39.641Z,4.27
2022-12-07T07:06:08.261Z,4.25
2022-12-07T07:08:36.219Z,4.25
2022-12-07T07:11:03.325Z,4.22
2022-12-07T07:13:30.245Z,4.21
2022-12-07T07:15:57.160Z,4.21
2022-12-07T07:18:24.144Z,4.22
2022-12-07T07:20:54.096Z,4.22
2022-12-07T07:23:21.527Z,4.28
2022-12-07T07:25:48.903Z,4.31
2022-12-07T07:28:16.317Z,4.29
2022-12-07T07:30:43.103Z,4.30
2022-12-07T07:33:11.049Z,4.32
2022-12-07T07:35:37.955Z,4.28
2022-12-07T07:38:04.721Z,4.29
2022-12-07T07:40:31.405Z,4.24
2022-12-07T07:42:58.852Z,4.22
2022-12-07T07:45:27.191Z,4.21
2022-12-07T07:47:54.033Z,4.23
2022-12-07T07:50:21.971Z,4.26
2022-12-07T07:52:48.739Z,4.25
2022-12-07T07:55:18.457Z,4.22
2022-12-07T07:57:49.705Z,4.22
2022-12-07T08:00:19.745Z,4.24
2022-12-07T08:02:47.064Z,4.24
2022-12-07T08:05:14.404Z,4.29
2022-12-07T08:07:41.888Z,4.30
2022-12-07T08:10:11.040Z,4.31
2022-12-07T08:13:02.415Z,4.30
2022-12-07T08:15:30.644Z,4.34
2022-12-07T08:17:57.472Z,4.34
2022-12-07T08:20:24.239Z,4.37
2022-12-07T08:22:50.988Z,4.38
2022-12-07T08:25:17.875Z,4.39
2022-12-07T08:27:44.641Z,4.40
2022-12-07T08:30:11.524Z,4.38
2022-12-07T08:32:38.288Z,4.39
2022-12-07T08:35:05.249Z,4.45
2022-12-07T08:37:32.602Z,4.47
2022-12-07T08:39:59.413Z,4.49
2022-12-07T08:42:30.536Z,4.52
2022-12-07T08:44:58.266Z,4.50
2022-12-07T08:47:25.672Z,4.55
2022-12-07T08:49:53.144Z,4.55
2022-12-07T08:52:19.934Z,4.60
2022-12-07T08:54:46.746Z,4.57
2022-12-07T08:57:13.466Z,4.59
2022-12-07T08:59:40.172Z,4.61
2022-12-07T09:02:07.513Z,4.65
2022-12-07T09:04:34.295Z,4.68
2022-12-07T09:07:01.023Z,4.70
2022-12-07T09:09:27.777Z,4.71
2022-12-07T09:11:54.489Z,4.73
2022-12-07T09:14:21.215Z,4.76
2022-12-07T09:16:48.051Z,4.78
2022-12-07T09:19:14.738Z,4.80
2022-12-07T09:21:41.457Z,4.82
2022-12-07T09:24:08.195Z,4.83
2022-12-07T09:26:36.082Z,4.84
2022-12-07T09:29:03.852Z,4.84
2022-12-07T09:31:30.725Z,4.87
2022-12-07T09:33:58.960Z,4.86
2022-12-07T09:36:27.031Z,4.86
2022-12-07T09:38:53.794Z,4.85
2022-12-07T09:41:21.597Z,4.84
2022-12-07T09:43:48.390Z,4.87
2022-12-07T09:46:18.333Z,4.88
2022-12-07T09:48:45.829Z,4.89
2022-12-07T09:51:25.998Z,4.87
2022-12-07T09:53:55.209Z,4.92
2022-12-07T09:56:23.146Z,4.94
2022-12-07T09:58:50.733Z,4.93
2022-12-07T10:01:22.361Z,4.89
2022-12-07T10:03:53.559Z,4.92
2022-12-07T10:06:20.367Z,4.90
2022-12-07T10:08:47.387Z,4.91
2022-12-07T10:11:15.776Z,4.89
2022-12-07T10:13:44.602Z,4.92
2022-12-07T10:16:29.568Z,4.92
2022-12-07T10:18:56.411Z,4.96
2022-12-07T10:21:27.363Z,4.96
2022-12-07T10:24:26.641Z,4.91
2022-12-07T10:26:54.110Z,4.98
2022-12-07T10:29:35.805Z,4.92
2022-12-07T10:32:05.900Z,4.96
2022-12-07T10:34:41.225Z,4.96
2022-12-07T10:37:18.410Z,5.00
2022-12-07T10:39:46.552Z,5.02
2022-12-07T10:42:32.707Z,4.99
2022-12-07T10:45:11.191Z,5.00
2022-12-07T10:47:45.205Z,5.06
2022-12-07T10:50:41.194Z,5.03
2022-12-07T10:53:10.896Z,5.09
2022-12-07T10:56:19.671Z,5.04
2022-12-07T10:59:17.979Z,5.05
2022-12-07T11:02:18.973Z,5.07
2022-12-07T11:05:07.121Z,5.04
2022-12-07T11:07:53.639Z,5.06
2022-12-07T11:10:54.256Z,5.05
2022-12-07T11:13:28.791Z,5.10
2022-12-07T11:16:19.721Z,5.08
2022-12-07T11:18:54.569Z,5.13
2022-12-07T11:21:37.566Z,5.12
2022-12-07T11:24:18.059Z,5.09
2022-12-07T11:26:59.581Z,5.11
2022-12-07T11:29:52.957Z,5.08
2022-12-07T11:32:50.589Z,5.08
2022-12-07T11:35:30.705Z,5.11
2022-12-07T11:38:00.796Z,5.14
2022-12-07T11:40:30.669Z,5.19
2022-12-07T11:43:10.844Z,5.16
2022-12-07T11:45:45.297Z,5.17
2022-12-07T11:48:33.026Z,5.15
2022-12-07T11:51:02.107Z,5.18
2022-12-07T11:53:40.183Z,5.13
2022-12-07T11:56:12.572Z,5.18
2022-12-07T11:58:49.832Z,5.16
2022-12-07T12:01:31.956Z,5.15
2022-12-07T12:04:11.462Z,5.17
2022-12-07T12:06:39.324Z,5.20
2022-12-07T12:15:31.461Z,5.20
2022-12-07T12:18:10.280Z,5.21
2022-12-07T12:20:46.361Z,5.19
2022-12-07T12:23:16.018Z,5.23
2022-12-07T12:25:52.199Z,5.23
2022-12-07T12:28:50.574Z,5.23
2022-12-07T12:31:26.146Z,5.29
2022-12-07T12:33:54.490Z,5.31
2022-12-07T12:36:31.862Z,5.27
2022-12-07T12:39:07.706Z,5.26
2022-12-07T12:41:42.471Z,5.29
2022-12-07T12:44:15.116Z,5.25
2022-12-07T12:46:50.195Z,5.25
2022-12-07T12:49:17.270Z,5.27
2022-12-07T12:51:54.819Z,5.28
2022-12-07T12:54:27.165Z,5.27
2022-12-07T12:57:14.093Z,5.26
2022-12-07T12:59:58.471Z,5.20
2022-12-07T13:02:34.081Z,5.29
2022-12-07T13:05:03.021Z,5.27
2022-12-07T13:07:45.360Z,5.25
2022-12-07T13:10:35.768Z,5.27
2022-12-07T13:13:20.713Z,5.28
2022-12-07T13:15:51.410Z,5.32
2022-12-07T13:18:24.101Z,5.32
2022-12-07T13:20:56.056Z,5.33
2022-12-07T13:23:31.038Z,5.33
2022-12-07T13:26:02.062Z,5.36
2022-12-07T13:28:36.534Z,5.34
2022-12-07T13:31:30.651Z,5.32
2022-12-07T13:33:57.393Z,5.36
2022-12-07T13:36:32.592Z,5.37
2022-12-07T13:39:01.569Z,5.38
2022-12-07T13:41:29.642Z,5.38
2022-12-07T13:44:16.563Z,5.34
2022-12-07T13:47:13.497Z,5.36
2022-12-07T13:49:53.214Z,5.36
2022-12-07T13:52:31.649Z,5.36
2022-12-07T13:55:07.488Z,5.36
2022-12-07T13:57:36.376Z,5.40
2022-12-07T14:00:05.826Z,5.39
2022-12-07T14:02:39.932Z,5.39
2022-12-07T14:05:24.179Z,5.34
2022-12-07T14:07:56.917Z,5.35
2022-12-07T14:10:29.952Z,5.31
2022-12-07T14:12:57.732Z,5.33
2022-12-07T14:15:28.226Z,5.31
2022-12-07T14:17:56.530Z,5.32
2022-12-07T14:20:37.039Z,5.28
2022-12-07T14:23:10.124Z,5.30
2022-12-07T14:25:50.788Z,5.18
2022-12-07T14:28:30.311Z,5.22
2022-12-07T14:30:57.065Z,5.23
2022-12-07T14:33:25.266Z,5.26
2022-12-07T14:35:56.102Z,5.26
2022-12-07T14:38:23.227Z,5.27
2022-12-07T14:40:50.042Z,5.25
2022-12-07T14:43:18.302Z,5.25
2022-12-07T14:45:45.189Z,5.23
2022-12-07T14:53:55.059Z,5.21
2022-12-07T14:56:25.157Z,5.19
2022-12-07T14:58:52.013Z,5.19
2022-12-07T15:01:18.818Z,5.19
2022-12-07T15:03:45.616Z,5.19
2022-12-07T15:06:16.244Z,5.15
2022-12-07T15:08:45.122Z,5.14
2022-12-07T15:11:15.924Z,5.13
2022-12-07T15:14:09.162Z,5.13
2022-12-07T15:17:06.690Z,5.11
2022-12-07T15:19:28.505Z,5.10
2022-12-07T15:21:56.317Z,5.11
2022-12-07T15:24:24.941Z,5.09
2022-12-07T15:26:51.730Z,5.10
2022-12-07T15:29:22.791Z,5.04
2022-12-07T15:31:56.887Z,5.04
2022-12-07T15:34:34.798Z,4.98
2022-12-07T15:37:02.970Z,4.97
2022-12-07T15:39:29.661Z,4.94
2022-12-07T15:41:56.398Z,4.92
2022-12-07T15:44:41.822Z,4.93
2022-12-07T15:47:08.593Z,4.93
2022-12-07T15:49:35.358Z,4.90
2022-12-07T15:52:02.103Z,4.89
2022-12-07T15:54:29.929Z,4.93
2022-12-07T15:56:57.249Z,4.96
2022-12-07T15:59:24.105Z,4.96
2022-12-07T16:01:50.886Z,4.97
2022-12-07T16:04:17.642Z,5.00
2022-12-07T16:06:44.440Z,5.01
2022-12-07T16:09:11.273Z,5.02
2022-12-07T16:11:38.012Z,5.04
2022-12-07T16:14:04.689Z,5.04
2022-12-07T16:16:31.762Z,5.04
2022-12-07T16:18:58.842Z,5.04
2022-12-07T16:21:25.992Z,5.05
2022-12-07T16:23:53.239Z,5.04
2022-12-07T16:26:21.828Z,5.07
2022-12-07T16:28:53.036Z,5.04
2022-12-07T16:31:25.577Z,5.08
2022-12-07T16:33:55.289Z,5.02
2022-12-07T16:36:40.360Z,5.05
2022-12-07T16:39:10.361Z,5.03
2022-12-07T16:41:37.448Z,5.03
2022-12-07T16:44:06.444Z,5.05
2022-12-07T16:46:34.410Z,5.04
2022-12-07T16:49:01.537Z,5.06
2022-12-07T16:51:28.519Z,5.05
2022-12-07T16:53:55.255Z,5.03
2022-12-07T16:56:22.094Z,5.03
2022-12-07T16:58:50.753Z,5.04
2022-12-07T17:01:20.029Z,5.03
2022-12-07T17:03:47.360Z,5.03
2022-12-07T17:06:19.620Z,4.98
2022-12-07T17:08:46.558Z,5.02
2022-12-07T17:11:16.682Z,5.01
2022-12-07T17:14:01.957Z,4.98
2022-12-07T17:16:29.632Z,4.96
2022-12-07T17:18:56.640Z,4.97
2022-12-07T17:21:23.532Z,4.98
2022-12-07T17:23:50.703Z,4.93
2022-12-07T17:26:21.127Z,4.86
2022-12-07T17:28:47.921Z,4.89
2022-12-07T17:31:16.747Z,4.90
2022-12-07T17:33:43.656Z,4.89
2022-12-07T17:36:18.318Z,4.89
2022-12-07T17:38:45.267Z,4.92
2022-12-07T17:41:13.711Z,4.93
2022-12-07T17:43:40.452Z,4.95
2022-12-07T17:46:09.007Z,4.94
2022-12-07T17:48:36.467Z,4.96
2022-12-07T17:51:22.480Z,4.94
2022-12-07T17:53:50.780Z,4.94
2022-12-07T17:56:28.552Z,4.95
2022-12-07T17:58:55.804Z,4.93
2022-12-07T18:01:24.215Z,4.89
2022-12-07T18:03:51.690Z,4.87
2022-12-07T18:06:18.390Z,4.88
2022-12-07T18:08:45.108Z,4.84
2022-12-07T18:11:11.901Z,4.81
2022-12-07T18:13:38.734Z,4.74
2022-12-07T18:16:21.110Z,4.74
2022-12-07T18:18:52.545Z,4.78
2022-12-07T18:21:27.881Z,4.78
2022-12-07T18:23:57.053Z,4.74
2022-12-07T18:26:25.799Z,4.90
2022-12-07T18:28:52.958Z,4.91
2022-12-07T18:31:20.500Z,5.01
2022-12-07T18:33:48.294Z,5.02
2022-12-07T18:36:16.460Z,5.01
2022-12-07T18:38:43.167Z,4.94
2022-12-07T18:41:12.306Z,4.84
2022-12-07T18:43:39.128Z,4.82
2022-12-07T18:46:20.140Z,4.77
2022-12-07T18:48:47.488Z,4.81
2022-12-07T18:51:15.323Z,4.83
2022-12-07T18:53:42.751Z,4.86
2022-12-07T18:56:18.128Z,4.77
2022-12-07T18:59:08.003Z,4.84
2022-12-07T19:01:34.936Z,4.86
2022-12-07T19:04:02.241Z,4.88
2022-12-07T19:06:29.113Z,4.91
2022-12-07T19:08:56.150Z,4.90
2022-12-07T19:11:44.116Z,4.88
2022-12-07T19:14:11.158Z,4.86
2022-12-07T19:16:38.748Z,4.84
2022-12-07T19:19:05.534Z,4.79
2022-12-07T19:21:32.279Z,4.76
2022-12-07T19:23:59.094Z,4.75
2022-12-07T19:26:25.909Z,4.75
2022-12-07T19:28:52.721Z,4.71
2022-12-07T19:31:19.523Z,4.72
2022-12-07T19:33:46.570Z,4.69
2022-12-07T19:36:13.437Z,4.67
2022-12-07T19:38:40.351Z,4.65
2022-12-07T19:41:30.544Z,4.65
2022-12-07T19:43:57.760Z,4.71
2022-12-07T19:46:24.887Z,4.73
2022-12-07T19:48:51.795Z,4.77
2022-12-07T19:51:18.778Z,4.75
2022-12-07T19:53:45.529Z,4.76
2022-12-07T19:56:19.181Z,4.73
2022-12-07T19:58:46.252Z,4.65
2022-12-07T20:01:13.077Z,4.61
2022-12-07T20:03:39.946Z,4.55
2022-12-07T20:06:15.603Z,4.52
2022-12-07T20:08:43.087Z,4.55
2022-12-07T20:11:28.928Z,4.50
2022-12-07T20:13:55.676Z,4.55
2022-12-07T20:16:22.760Z,4.61
2022-12-07T20:18:54.295Z,4.66
2022-12-07T20:21:24.471Z,4.67
2022-12-07T20:23:51.237Z,4.62
2022-12-07T20:26:18.921Z,4.61
2022-12-07T20:28:46.588Z,4.63
2022-12-07T20:31:14.749Z,4.66
2022-12-07T20:33:43.405Z,4.71
2022-12-07T20:36:10.271Z,4.71
2022-12-07T20:38:37.440Z,4.73
2022-12-07T20:41:06.242Z,4.76
2022-12-07T20:43:33.572Z,4.75
2022-12-07T20:46:00.586Z,4.73
2022-12-07T20:48:27.486Z,4.74
2022-12-07T20:50:54.715Z,4.74
2022-12-07T20:53:21.455Z,4.73
2022-12-07T20:55:48.213Z,4.77
2022-12-07T20:58:14.921Z,4.75
2022-12-07T21:00:41.991Z,4.77
2022-12-07T21:03:09.449Z,4.77
2022-12-07T21:05:36.248Z,4.77
2022-12-07T21:08:03.155Z,4.72
2022-12-07T21:10:29.951Z,4.68
2022-12-07T21:12:56.699Z,4.66
2022-12-07T21:15:23.378Z,4.61
2022-12-07T21:17:50.231Z,4.52
2022-12-07T21:20:16.964Z,4.49
2022-12-07T21:22:43.728Z,4.44
2022-12-07T21:25:10.566Z,4.46
2022-12-07T21:27:37.269Z,4.37
2022-12-07T21:30:04.421Z,4.34
2022-12-07T21:32:31.177Z,4.27
2022-12-07T21:34:57.998Z,4.26
2022-12-07T21:37:24.783Z,4.22
2022-12-07T21:39:51.610Z,4.22
2022-12-07T21:42:18.346Z,4.21
2022-12-07T21:44:45.175Z,4.19
2022-12-07T21:47:11.880Z,4.18
2022-12-07T21:49:38.639Z,4.08
2022-12-07T21:52:05.542Z,4.10
2022-12-07T21:54:32.839Z,4.11
2022-12-07T21:56:59.808Z,4.12
2022-12-07T21:59:26.642Z,4.08
2022-12-07T22:01:53.461Z,4.07
2022-12-07T22:04:22.543Z,4.01
2022-12-07T22:06:49.760Z,4.05
2022-12-07T22:09:18.695Z,4.02
2022-12-07T22:11:46.171Z,4.00
2022-12-07T22:14:31.370Z,4.01
2022-12-07T22:16:58.623Z,4.00
2022-12-07T22:19:26.445Z,4.03
2022-12-07T22:21:53.167Z,4.03
2022-12-07T22:24:20.071Z,4.04
2022-12-07T22:26:46.946Z,4.00
2022-12-07T22:29:13.733Z,3.96
2022-12-07T22:31:41.165Z,3.98
2022-12-07T22:34:14.657Z,3.90
2022-12-07T22:36:41.312Z,3.71
2022-12-07T22:39:09.102Z,3.90
2022-12-07T22:41:35.981Z,3.93
2022-12-07T22:44:05.695Z,3.91
2022-12-07T22:46:33.950Z,3.91
2022-12-07T22:49:01.150Z,3.91
2022-12-07T22:51:30.843Z,3.85
2022-12-07T22:54:02.506Z,3.86
2022-12-07T22:56:31.233Z,3.84
2022-12-07T22:58:58.230Z,3.83
2022-12-07T23:01:24.986Z,3.83
2022-12-07T23:03:51.886Z,3.86
2022-12-07T23:06:24.311Z,3.84
2022-12-07T23:08:51.734Z,3.80
2022-12-07T23:11:44.111Z,3.76
2022-12-07T23:14:16.521Z,3.74
2022-12-07T23:16:44.439Z,3.76
2022-12-07T23:19:12.016Z,3.78
2022-12-07T23:21:40.253Z,3.76
2022-12-07T23:24:07.608Z,3.77
2022-12-07T23:26:34.467Z,3.82
2022-12-07T23:29:01.244Z,3.79
2022-12-07T23:31:28.077Z,3.86
2022-12-07T23:33:54.859Z,3.82
2022-12-07T23:36:23.854Z,3.86
2022-12-07T23:38:51.470Z,3.86
2022-12-07T23:41:21.528Z,3.84
2022-12-07T23:43:48.696Z,3.86
2022-12-07T23:46:18.266Z,3.83
2022-12-07T23:48:46.060Z,3.85
2022-12-07T23:51:13.468Z,3.86
2022-12-07T23:53:42.819Z,3.83
2022-12-07T23:56:19.059Z,3.75
2022-12-07T23:58:46.859Z,3.77
